Time;durP1;ratioP1;P1;durP2;ratioP2;P2;SDS_P1;SDS_P2;PMS_P1;PMS_P2;Temp;Humidity;BMP_temperature;BMP_pressure;BME280_temperature;BME280_humidity;BME280_pressure;Samples;Min_cycle;Max_cycle;Signal;HPM_P1;HPM_P2
2021/10/17 00:00:27;;;;;;;;;;;;;;;;;;2122929;27;19927;-58
2021/10/17 00:01:28;;;;;;;;;;;;;;;;;;2122663;27;20006;-58
2021/10/17 00:02:29;;;;;;;;;;;;;;;;;;2122705;28;19931;-58
2021/10/17 00:03:30;;;;;;;;;;;;;;;;;;2122611;28;19923;-57
2021/10/17 00:04:31;;;;;;;;;;;;;;;;;;2122769;28;20299;-58
2021/10/17 00:05:32;;;;;;;;;;;;;;;;;;2122452;28;19946;-58
2021/10/17 00:06:32;;;;;;;;;;;;;;;;;;2122634;28;19931;-58
2021/10/17 00:07:33;;;;;;;;;;;;;;;;;;2122684;27;19968;-58
2021/10/17 00:08:34;;;;;;;;;;;;;;;;;;2122606;28;19923;-58
2021/10/17 00:09:35;;;;;;;;;;;;;;;;;;2122605;28;19923;-58
2021/10/17 00:10:36;;;;;;;;;;;;;;;;;;2122539;28;20284;-58
2021/10/17 00:11:37;;;;;;;;;;;;;;;;;;2122643;28;19959;-58
2021/10/17 00:12:38;;;;;;;;;;;;;;;;;;2122671;28;19930;-58
2021/10/17 00:13:38;;;;;;;;;;;;;;;;;;2122695;28;19927;-58
2021/10/17 00:14:39;;;;;;;;;;;;;;;;;;2122704;28;19930;-58
2021/10/17 00:15:40;;;;;;;;;;;;;;;;;;2122596;28;19924;-58
2021/10/17 00:16:41;;;;;;;;;;;;;;;;;;2122600;28;19966;-58
2021/10/17 00:17:42;;;;;;;;;;;;;;;;;;2122547;28;19923;-58
2021/10/17 00:18:43;;;;;;;;;;;;;;;;;;2122719;28;19963;-58
2021/10/17 00:19:43;;;;;;;;;;;;;;;;;;2122521;28;19992;-57
2021/10/17 00:20:44;;;;;;;;;;;;;;;;;;2122419;27;19931;-58
2021/10/17 00:21:45;;;;;;;;;;;;;;;;;;2123446;28;19930;-58
2021/10/17 00:22:46;;;;;;;;;;;;;;;;;;2124090;28;19955;-58
2021/10/17 00:23:47;;;;;;;;;;;;;;;;;;2124132;27;20018;-58
2021/10/17 00:24:48;;;;;;;;;;;;;;;;;;2124118;28;19924;-58
2021/10/17 00:25:49;;;;;;;;;;;;;;;;;;2124130;28;19954;-58
2021/10/17 00:26:49;;;;;;;;;;;;;;;;;;2124024;28;20390;-58
2021/10/17 00:27:50;;;;;;;;;;;;;;;;;;2124170;28;19930;-58
2021/10/17 00:28:51;;;;;;;;;;;;;;;;;;2124172;28;19984;-58
2021/10/17 00:29:52;;;;;;;;;;;;;;;;;;2124112;28;19931;-57
2021/10/17 00:30:53;;;;;;;;;;;;;;;;;;2123972;28;19930;-57
2021/10/17 00:31:53;;;;;;;;;;;;;;;;;;2124004;28;19923;-58
2021/10/17 00:32:54;;;;;;;;;;;;;;;;;;2123998;28;20339;-58
2021/10/17 00:33:55;;;;;;;;;;;;;;;;;;2124028;28;19930;-57
2021/10/17 00:34:57;;;;;;;;;;;;;;;;;;2124056;28;19931;-58
2021/10/17 00:35:58;;;;;;;;;;;;;;;;;;2123910;28;19931;-57
2021/10/17 00:36:59;;;;;;;;;;;;;;;;;;2123987;28;19923;-58
2021/10/17 00:38:00;;;;;;;;;;;;;;;;;;2123833;28;19923;-57
2021/10/17 00:39:01;;;;;;;;;;;;;;;;;;2123882;28;19934;-57
2021/10/17 00:40:02;;;;;;;;;;;;;;;;;;2123964;28;19923;-57
2021/10/17 00:41:02;;;;;;;;;;;;;;;;;;2123988;28;19930;-57
2021/10/17 00:42:04;;;;;;;;;;;;;;;;;;2123836;28;19937;-58
2021/10/17 00:43:05;;;;;;;;;;;;;;;;;;2123963;28;20417;-57
2021/10/17 00:44:10;;;;;;;;;;;;;;;;;;2123911;28;20362;-57
2021/10/17 00:45:11;;;;;;;;;;;;;;;;;;2124162;28;19927;-57
2021/10/17 00:46:11;;;;;;;;;;;;;;;;;;2123889;28;19923;-57
2021/10/17 00:47:12;;;;;;;;;;;;;;;;;;2123977;28;19924;-58
2021/10/17 00:48:13;;;;;;;;;;;;;;;;;;2123765;28;19975;-58
2021/10/17 00:49:14;;;;;;;;;;;;;;;;;;2123864;28;19935;-57
2021/10/17 00:50:15;;;;;;;;;;;;;;;;;;2123993;28;19923;-58
2021/10/17 00:51:15;;;;;;;;;;;;;;;;;;2123814;28;19923;-57
2021/10/17 00:52:16;;;;;;;;;;;;;;;;;;2123892;27;19923;-58
2021/10/17 00:53:17;;;;;;;;;;;;;;;;;;2123948;28;19923;-57
2021/10/17 00:54:18;;;;;;;;;;;;;;;;;;2123694;28;19929;-58
2021/10/17 00:55:19;;;;;;;;;;;;;;;;;;2124010;28;19923;-57
2021/10/17 00:56:20;;;;;;;;;;;;;;;;;;2123824;28;20013;-57
2021/10/17 00:57:21;;;;;;;;;;;;;;;;;;2123814;28;20380;-57
2021/10/17 00:58:22;;;;;;;;;;;;;;;;;;2123727;28;19923;-58
2021/10/17 00:59:23;;;;;;;;;;;;;;;;;;2123993;28;19959;-58
2021/10/17 01:00:24;;;;;;;;;;;;;;;;;;2123757;28;19923;-58
2021/10/17 01:01:25;;;;;;;;;;;;;;;;;;2123787;28;19923;-58
2021/10/17 01:02:26;;;;;;;;;;;;;;;;;;2123727;28;19973;-57
2021/10/17 01:03:27;;;;;;;;;;;;;;;;;;2123913;27;19972;-57
2021/10/17 01:04:28;;;;;;;;;;;;;;;;;;2123907;28;19996;-58
2021/10/17 01:05:29;;;;;;;;;;;;;;;;;;2123824;28;19931;-58
2021/10/17 01:06:30;;;;;;;;;;;;;;;;;;2123882;28;20039;-58
2021/10/17 01:07:30;;;;;;;;;;;;;;;;;;2123621;28;20330;-58
2021/10/17 01:08:31;;;;;;;;;;;;;;;;;;2123894;28;20391;-58
2021/10/17 01:09:32;;;;;;;;;;;;;;;;;;2123633;28;19927;-58
2021/10/17 01:10:33;;;;;;;;;;;;;;;;;;2123682;28;19931;-57
2021/10/17 01:11:34;;;;;;;;;;;;;;;;;;2123458;28;19927;-57
2021/10/17 01:12:35;;;;;;;;;;;;;;;;;;2123904;28;19930;-57
2021/10/17 01:13:35;;;;;;;;;;;;;;;;;;2123738;28;20661;-57
2021/10/17 01:14:36;;;;;;;;;;;;;;;;;;2123906;28;19923;-57
2021/10/17 01:15:37;;;;;;;;;;;;;;;;;;2123506;28;19930;-57
2021/10/17 01:16:38;;;;;;;;;;;;;;;;;;2123939;28;19924;-57
2021/10/17 01:17:39;;;;;;;;;;;;;;;;;;2123665;27;19931;-58
2021/10/17 01:18:40;;;;;;;;;;;;;;;;;;2123851;28;19923;-57
2021/10/17 01:19:41;;;;;;;;;;;;;;;;;;2123509;28;19968;-58
2021/10/17 01:20:41;;;;;;;;;;;;;;;;;;2123751;28;19973;-57
2021/10/17 01:21:42;;;;;;;;;;;;;;;;;;2123617;28;19952;-57
2021/10/17 01:22:43;;;;;;;;;;;;;;;;;;2123810;28;20303;-57
2021/10/17 01:23:44;;;;;;;;;;;;;;;;;;2123684;28;19924;-58
2021/10/17 01:24:45;;;;;;;;;;;;;;;;;;2123814;28;20010;-58
2021/10/17 01:25:45;;;;;;;;;;;;;;;;;;2123575;28;19946;-58
2021/10/17 01:26:46;;;;;;;;;;;;;;;;;;2123723;27;19927;-57
2021/10/17 01:27:47;;;;;;;;;;;;;;;;;;2123795;28;19924;-58
2021/10/17 01:28:48;;;;;;;;;;;;;;;;;;2123645;28;19923;-58
2021/10/17 01:29:49;;;;;;;;;;;;;;;;;;2123446;28;19972;-57
2021/10/17 01:30:49;;;;;;;;;;;;;;;;;;2123851;28;19924;-58
2021/10/17 01:31:50;;;;;;;;;;;;;;;;;;2123363;27;20147;-57
2021/10/17 01:32:51;;;;;;;;;;;;;;;;;;2123263;28;19928;-57
2021/10/17 01:33:52;;;;;;;;;;;;;;;;;;2123593;28;19924;-57
2021/10/17 01:34:53;;;;;;;;;;;;;;;;;;2123791;27;19923;-57
2021/10/17 01:35:54;;;;;;;;;;;;;;;;;;2123401;28;20272;-57
2021/10/17 01:36:54;;;;;;;;;;;;;;;;;;2123685;28;19924;-57
2021/10/17 01:37:55;;;;;;;;;;;;;;;;;;2123535;28;19923;-57
2021/10/17 01:38:56;;;;;;;;;;;;;;;;;;2123550;28;19923;-57
2021/10/17 01:39:57;;;;;;;;;;;;;;;;;;2123429;28;20487;-57
2021/10/17 01:40:58;;;;;;;;;;;;;;;;;;2123427;28;19930;-57
2021/10/17 01:41:58;;;;;;;;;;;;;;;;;;2123533;28;19923;-57
2021/10/17 01:42:59;;;;;;;;;;;;;;;;;;2123484;28;19938;-57
2021/10/17 01:44:00;;;;;;;;;;;;;;;;;;2123694;27;19923;-57
2021/10/17 01:45:01;;;;;;;;;;;;;;;;;;2123452;28;20281;-57
2021/10/17 01:46:02;;;;;;;;;;;;;;;;;;2123633;28;20368;-57
2021/10/17 01:47:02;;;;;;;;;;;;;;;;;;2123622;28;19923;-57
2021/10/17 01:48:03;;;;;;;;;;;;;;;;;;2123454;28;19924;-57
2021/10/17 01:49:05;;;;;;;;;;;;;;;;;;2123497;28;20395;-57
2021/10/17 01:50:06;;;;;;;;;;;;;;;;;;2123440;28;20420;-57
2021/10/17 01:51:06;;;;;;;;;;;;;;;;;;2123494;28;19953;-57
2021/10/17 01:52:07;;;;;;;;;;;;;;;;;;2123356;28;19930;-56
2021/10/17 01:53:08;;;;;;;;;;;;;;;;;;2123414;28;19968;-57
2021/10/17 01:54:09;;;;;;;;;;;;;;;;;;2123454;27;19972;-57
2021/10/17 01:55:10;;;;;;;;;;;;;;;;;;2123639;28;20023;-57
2021/10/17 01:56:11;;;;;;;;;;;;;;;;;;2123327;27;19980;-57
2021/10/17 01:57:12;;;;;;;;;;;;;;;;;;2123392;28;19930;-57
2021/10/17 01:58:13;;;;;;;;;;;;;;;;;;2123306;27;19929;-57
2021/10/17 01:59:13;;;;;;;;;;;;;;;;;;2123596;28;19972;-57
2021/10/17 02:00:14;;;;;;;;;;;;;;;;;;2123413;28;20364;-57
2021/10/17 02:01:15;;;;;;;;;;;;;;;;;;2123378;28;19924;-57
2021/10/17 02:02:16;;;;;;;;;;;;;;;;;;2123407;28;19935;-56
2021/10/17 02:03:17;;;;;;;;;;;;;;;;;;2123387;28;20325;-57
2021/10/17 02:04:18;;;;;;;;;;;;;;;;;;2123428;28;19923;-57
2021/10/17 02:05:18;;;;;;;;;;;;;;;;;;2123484;28;19946;-57
2021/10/17 02:06:19;;;;;;;;;;;;;;;;;;2123137;28;20385;-57
2021/10/17 02:07:20;;;;;;;;;;;;;;;;;;2123412;28;19923;-57
2021/10/17 02:08:21;;;;;;;;;;;;;;;;;;2123303;28;19927;-57
2021/10/17 02:09:22;;;;;;;;;;;;;;;;;;2123421;28;20482;-57
2021/10/17 02:10:23;;;;;;;;;;;;;;;;;;2123119;28;19935;-57
2021/10/17 02:11:24;;;;;;;;;;;;;;;;;;2123419;28;20318;-57
2021/10/17 02:12:26;;;;;;;;;;;;;;;;;;2122990;28;19923;-57
2021/10/17 02:13:27;;;;;;;;;;;;;;;;;;2123593;28;19966;-57
2021/10/17 02:14:27;;;;;;;;;;;;;;;;;;2123173;28;19927;-57
2021/10/17 02:15:28;;;;;;;;;;;;;;;;;;2123529;28;19924;-57
2021/10/17 02:16:29;;;;;;;;;;;;;;;;;;2123234;28;19954;-57
2021/10/17 02:17:31;;;;;;;;;;;;;;;;;;2123434;28;20287;-57
2021/10/17 02:18:32;;;;;;;;;;;;;;;;;;2123141;28;20010;-57
2021/10/17 02:19:32;;;;;;;;;;;;;;;;;;2123407;28;19932;-57
2021/10/17 02:20:34;;;;;;;;;;;;;;;;;;2123211;28;19931;-57
2021/10/17 02:21:35;;;;;;;;;;;;;;;;;;2123337;28;20466;-57
2021/10/17 02:22:36;;;;;;;;;;;;;;;;;;2123157;28;19924;-56
2021/10/17 02:23:37;;;;;;;;;;;;;;;;;;2123480;27;20379;-57
2021/10/17 02:24:38;;;;;;;;;;;;;;;;;;2123287;28;19930;-57
2021/10/17 02:25:39;;;;;;;;;;;;;;;;;;2123210;28;19930;-57
2021/10/17 02:26:39;;;;;;;;;;;;;;;;;;2123234;28;19927;-56
2021/10/17 02:27:40;;;;;;;;;;;;;;;;;;2123289;28;19976;-57
2021/10/17 02:28:41;;;;;;;;;;;;;;;;;;2123282;28;20444;-57
2021/10/17 02:29:42;;;;;;;;;;;;;;;;;;2123356;28;20356;-57
2021/10/17 02:30:42;;;;;;;;;;;;;;;;;;2123150;28;19923;-56
2021/10/17 02:31:43;;;;;;;;;;;;;;;;;;2123268;28;19976;-57
2021/10/17 02:32:44;;;;;;;;;;;;;;;;;;2123185;28;20443;-57
2021/10/17 02:33:45;;;;;;;;;;;;;;;;;;2123296;27;19923;-57
2021/10/17 02:34:46;;;;;;;;;;;;;;;;;;2123035;28;20383;-57
2021/10/17 02:35:47;;;;;;;;;;;;;;;;;;2123217;27;19923;-57
2021/10/17 02:36:47;;;;;;;;;;;;;;;;;;2123168;28;20326;-57
2021/10/17 02:37:48;;;;;;;;;;;;;;;;;;2123346;28;20360;-57
2021/10/17 02:38:49;;;;;;;;;;;;;;;;;;2123243;28;19934;-57
2021/10/17 02:39:50;;;;;;;;;;;;;;;;;;2123113;28;19928;-57
2021/10/17 02:40:51;;;;;;;;;;;;;;;;;;2123173;28;19928;-56
2021/10/17 02:41:51;;;;;;;;;;;;;;;;;;2123073;28;19963;-57
2021/10/17 02:42:52;;;;;;;;;;;;;;;;;;2123312;28;20347;-57
2021/10/17 02:43:53;;;;;;;;;;;;;;;;;;2122337;27;19924;-57
2021/10/17 02:44:54;;;;;;;;;;;;;;;;;;2122861;28;19968;-57
2021/10/17 02:45:55;;;;;;;;;;;;;;;;;;2123108;28;19930;-56
2021/10/17 02:46:57;;;;;;;;;;;;;;;;;;2123249;28;19934;-57
2021/10/17 02:47:58;;;;;;;;;;;;;;;;;;2123102;28;20299;-57
2021/10/17 02:48:59;;;;;;;;;;;;;;;;;;2123075;28;19924;-57
2021/10/17 02:50:00;;;;;;;;;;;;;;;;;;2123140;28;19968;-56
2021/10/17 02:51:00;;;;;;;;;;;;;;;;;;2123259;28;19949;-56
2021/10/17 02:52:01;;;;;;;;;;;;;;;;;;2123091;28;20265;-56
2021/10/17 02:53:02;;;;;;;;;;;;;;;;;;2122960;28;19923;-56
2021/10/17 02:54:03;;;;;;;;;;;;;;;;;;2123181;27;20399;-56
2021/10/17 02:55:04;;;;;;;;;;;;;;;;;;2122945;28;19923;-57
2021/10/17 02:56:04;;;;;;;;;;;;;;;;;;2123043;28;19923;-56
2021/10/17 02:57:05;;;;;;;;;;;;;;;;;;2122962;28;19923;-56
2021/10/17 02:58:06;;;;;;;;;;;;;;;;;;2123004;28;19930;-56
2021/10/17 02:59:07;;;;;;;;;;;;;;;;;;2123147;28;20417;-57
2021/10/17 03:00:08;;;;;;;;;;;;;;;;;;2123102;27;19923;-57
2021/10/17 03:01:08;;;;;;;;;;;;;;;;;;2123083;28;19923;-56
2021/10/17 03:02:09;;;;;;;;;;;;;;;;;;2123010;28;20084;-57
2021/10/17 03:03:10;;;;;;;;;;;;;;;;;;2123064;28;19924;-57
2021/10/17 03:04:11;;;;;;;;;;;;;;;;;;2123043;27;19935;-57
2021/10/17 03:05:12;;;;;;;;;;;;;;;;;;2123012;28;19929;-56
2021/10/17 03:06:13;;;;;;;;;;;;;;;;;;2122815;28;19931;-56
2021/10/17 03:07:14;;;;;;;;;;;;;;;;;;2122983;28;20451;-57
2021/10/17 03:08:15;;;;;;;;;;;;;;;;;;2123001;28;19923;-56
2021/10/17 03:09:15;;;;;;;;;;;;;;;;;;2122973;28;19924;-57
2021/10/17 03:10:17;;;;;;;;;;;;;;;;;;2123021;28;19930;-56
2021/10/17 03:11:17;;;;;;;;;;;;;;;;;;2122785;28;19971;-56
2021/10/17 03:12:18;;;;;;;;;;;;;;;;;;2122967;28;19930;-56
2021/10/17 03:13:19;;;;;;;;;;;;;;;;;;2122852;28;19924;-56
2021/10/17 03:14:20;;;;;;;;;;;;;;;;;;2122976;28;19976;-56
2021/10/17 03:15:20;;;;;;;;;;;;;;;;;;2122935;28;19930;-56
2021/10/17 03:16:21;;;;;;;;;;;;;;;;;;2123069;27;19927;-56
2021/10/17 03:17:22;;;;;;;;;;;;;;;;;;2122999;28;20485;-57
2021/10/17 03:18:23;;;;;;;;;;;;;;;;;;2123018;28;19927;-56
2021/10/17 03:19:24;;;;;;;;;;;;;;;;;;2123007;28;20292;-57
2021/10/17 03:20:25;;;;;;;;;;;;;;;;;;2122994;27;20325;-57
2021/10/17 03:21:25;;;;;;;;;;;;;;;;;;2122799;28;19924;-57
2021/10/17 03:22:26;;;;;;;;;;;;;;;;;;2123087;28;19931;-57
2021/10/17 03:23:27;;;;;;;;;;;;;;;;;;2123137;28;20265;-56
2021/10/17 03:24:28;;;;;;;;;;;;;;;;;;2122969;28;19931;-56
2021/10/17 03:25:28;;;;;;;;;;;;;;;;;;2122816;28;19923;-57
2021/10/17 03:26:29;;;;;;;;;;;;;;;;;;2122782;28;19923;-57
2021/10/17 03:27:30;;;;;;;;;;;;;;;;;;2122884;28;19923;-57
2021/10/17 03:28:31;;;;;;;;;;;;;;;;;;2122865;28;20748;-57
2021/10/17 03:29:32;;;;;;;;;;;;;;;;;;2122959;28;19927;-57
2021/10/17 03:30:33;;;;;;;;;;;;;;;;;;2122671;28;19946;-56
2021/10/17 03:31:37;;;;;;;;;;;;;;;;;;2122806;28;20234;-57
2021/10/17 03:32:38;;;;;;;;;;;;;;;;;;2123012;27;20009;-57
2021/10/17 03:33:38;;;;;;;;;;;;;;;;;;2122818;28;20364;-57
2021/10/17 03:34:39;;;;;;;;;;;;;;;;;;2122744;28;19946;-57
2021/10/17 03:35:40;;;;;;;;;;;;;;;;;;2122747;28;19923;-57
2021/10/17 03:36:41;;;;;;;;;;;;;;;;;;2122649;28;19931;-57
2021/10/17 03:37:42;;;;;;;;;;;;;;;;;;2122872;28;19930;-57
2021/10/17 03:38:43;;;;;;;;;;;;;;;;;;2122783;28;20180;-57
2021/10/17 03:39:43;;;;;;;;;;;;;;;;;;2122945;27;20056;-57
2021/10/17 03:40:44;;;;;;;;;;;;;;;;;;2122433;28;19928;-57
2021/10/17 03:41:45;;;;;;;;;;;;;;;;;;2122794;28;19931;-57
2021/10/17 03:42:46;;;;;;;;;;;;;;;;;;2122768;27;19924;-57
2021/10/17 03:43:47;;;;;;;;;;;;;;;;;;2122989;28;20295;-57
2021/10/17 03:44:48;;;;;;;;;;;;;;;;;;2122567;27;19923;-57
2021/10/17 03:45:48;;;;;;;;;;;;;;;;;;2122795;28;20380;-57
2021/10/17 03:46:49;;;;;;;;;;;;;;;;;;2122795;27;19930;-57
2021/10/17 03:47:50;;;;;;;;;;;;;;;;;;2123053;28;19924;-57
2021/10/17 03:48:51;;;;;;;;;;;;;;;;;;2122651;28;19923;-57
2021/10/17 03:49:52;;;;;;;;;;;;;;;;;;2122753;28;20398;-57
2021/10/17 03:50:52;;;;;;;;;;;;;;;;;;2122615;28;19923;-57
2021/10/17 03:51:53;;;;;;;;;;;;;;;;;;2122814;28;19931;-57
2021/10/17 03:52:54;;;;;;;;;;;;;;;;;;2122730;28;20268;-57
2021/10/17 03:53:55;;;;;;;;;;;;;;;;;;2122655;28;19984;-57
2021/10/17 03:54:56;;;;;;;;;;;;;;;;;;2122504;27;19924;-57
2021/10/17 03:55:56;;;;;;;;;;;;;;;;;;2122464;28;19973;-57
2021/10/17 03:56:57;;;;;;;;;;;;;;;;;;2122593;28;20384;-57
2021/10/17 03:57:58;;;;;;;;;;;;;;;;;;2122870;28;19971;-57
2021/10/17 03:58:59;;;;;;;;;;;;;;;;;;2122713;28;19927;-57
2021/10/17 04:00:00;;;;;;;;;;;;;;;;;;2122742;28;20446;-57
2021/10/17 04:01:01;;;;;;;;;;;;;;;;;;2122651;28;20006;-57
2021/10/17 04:02:01;;;;;;;;;;;;;;;;;;2122843;28;20095;-57
2021/10/17 04:03:02;;;;;;;;;;;;;;;;;;2122628;28;19988;-57
2021/10/17 04:04:03;;;;;;;;;;;;;;;;;;2122740;28;19945;-57
2021/10/17 04:05:04;;;;;;;;;;;;;;;;;;2122811;28;19923;-57
2021/10/17 04:06:05;;;;;;;;;;;;;;;;;;2122506;28;19924;-56
2021/10/17 04:07:06;;;;;;;;;;;;;;;;;;2122672;27;19924;-57
2021/10/17 04:08:08;;;;;;;;;;;;;;;;;;2122717;27;20014;-57
2021/10/17 04:09:09;;;;;;;;;;;;;;;;;;2122606;28;19923;-57
2021/10/17 04:10:10;;;;;;;;;;;;;;;;;;2122708;28;19923;-57
2021/10/17 04:11:11;;;;;;;;;;;;;;;;;;2122595;28;19924;-56
2021/10/17 04:12:11;;;;;;;;;;;;;;;;;;2122543;28;19927;-57
2021/10/17 04:13:12;;;;;;;;;;;;;;;;;;2122655;28;20131;-57
2021/10/17 04:14:13;;;;;;;;;;;;;;;;;;2122585;28;19927;-57
2021/10/17 04:15:14;;;;;;;;;;;;;;;;;;2122708;28;19923;-57
2021/10/17 04:16:15;;;;;;;;;;;;;;;;;;2122593;28;20348;-58
2021/10/17 04:17:16;;;;;;;;;;;;;;;;;;2122630;28;20300;-57
2021/10/17 04:18:16;;;;;;;;;;;;;;;;;;2122532;28;19931;-57
2021/10/17 04:19:18;;;;;;;;;;;;;;;;;;2122635;28;19923;-57
2021/10/17 04:20:18;;;;;;;;;;;;;;;;;;2122646;28;20309;-57
2021/10/17 04:21:19;;;;;;;;;;;;;;;;;;2122366;28;19924;-57
2021/10/17 04:22:20;;;;;;;;;;;;;;;;;;2122556;28;20229;-56
2021/10/17 04:23:39;;;;;;;;;;;;;;;;;;2122561;28;19923;-56
2021/10/17 04:24:40;;;;;;;;;;;;;;;;;;2122621;28;20326;-57
2021/10/17 04:25:41;;;;;;;;;;;;;;;;;;2122549;28;20187;-57
2021/10/17 04:26:42;;;;;;;;;;;;;;;;;;2122499;28;19931;-57
2021/10/17 04:27:43;;;;;;;;;;;;;;;;;;2122378;28;19923;-57
2021/10/17 04:28:43;;;;;;;;;;;;;;;;;;2122561;28;19935;-57
2021/10/17 04:29:44;;;;;;;;;;;;;;;;;;2122372;28;20018;-57
2021/10/17 04:30:45;;;;;;;;;;;;;;;;;;2122485;28;19930;-57
2021/10/17 04:31:46;;;;;;;;;;;;;;;;;;2122413;28;19931;-57
2021/10/17 04:32:46;;;;;;;;;;;;;;;;;;2122507;28;19923;-57
2021/10/17 04:33:47;;;;;;;;;;;;;;;;;;2122520;28;20121;-57
2021/10/17 04:34:48;;;;;;;;;;;;;;;;;;2122718;28;20262;-57
2021/10/17 04:35:49;;;;;;;;;;;;;;;;;;2122472;27;19923;-57
2021/10/17 04:36:50;;;;;;;;;;;;;;;;;;2122543;28;19923;-57
2021/10/17 04:37:51;;;;;;;;;;;;;;;;;;2122432;28;19924;-57
2021/10/17 04:38:51;;;;;;;;;;;;;;;;;;2122529;28;19949;-57
2021/10/17 04:39:52;;;;;;;;;;;;;;;;;;2122474;28;19927;-56
2021/10/17 04:40:53;;;;;;;;;;;;;;;;;;2122410;28;19929;-57
2021/10/17 04:41:54;;;;;;;;;;;;;;;;;;2122224;28;19924;-57
2021/10/17 04:42:54;;;;;;;;;;;;;;;;;;2122628;28;19923;-57
2021/10/17 04:43:55;;;;;;;;;;;;;;;;;;2122315;28;19930;-57
2021/10/17 04:44:56;;;;;;;;;;;;;;;;;;2122580;28;19968;-57
2021/10/17 04:45:57;;;;;;;;;;;;;;;;;;2122292;28;19923;-57
2021/10/17 04:46:58;;;;;;;;;;;;;;;;;;2122588;28;19968;-57
2021/10/17 04:47:59;;;;;;;;;;;;;;;;;;2122384;28;19923;-57
2021/10/17 04:48:59;;;;;;;;;;;;;;;;;;2122685;28;19930;-57
2021/10/17 04:50:00;;;;;;;;;;;;;;;;;;2122223;28;19931;-57
2021/10/17 04:51:01;;;;;;;;;;;;;;;;;;2122478;27;19924;-57
2021/10/17 04:52:02;;;;;;;;;;;;;;;;;;2122291;28;19938;-57
2021/10/17 04:53:02;;;;;;;;;;;;;;;;;;2122503;28;20372;-57
2021/10/17 04:54:03;;;;;;;;;;;;;;;;;;2122424;28;19962;-57
2021/10/17 04:55:07;;;;;;;;;;;;;;;;;;2122486;28;19967;-57
2021/10/17 04:56:08;;;;;;;;;;;;;;;;;;2122500;27;20018;-57
2021/10/17 04:57:10;;;;;;;;;;;;;;;;;;2122436;28;20056;-57
2021/10/17 04:58:10;;;;;;;;;;;;;;;;;;2122382;27;20438;-57
2021/10/17 04:59:13;;;;;;;;;;;;;;;;;;2122306;28;19928;-57
2021/10/17 05:00:14;;;;;;;;;;;;;;;;;;2122389;28;20064;-57
2021/10/17 05:01:14;;;;;;;;;;;;;;;;;;2122201;28;20387;-57
2021/10/17 05:02:16;;;;;;;;;;;;;;;;;;2122648;28;19935;-57
2021/10/17 05:03:16;;;;;;;;;;;;;;;;;;2122326;28;20391;-57
2021/10/17 05:04:17;;;;;;;;;;;;;;;;;;2122583;28;19931;-57
2021/10/17 05:05:18;;;;;;;;;;;;;;;;;;2122297;28;19938;-58
2021/10/17 05:06:19;;;;;;;;;;;;;;;;;;2122316;28;19924;-57
2021/10/17 05:07:20;;;;;;;;;;;;;;;;;;2122712;27;20113;-57
2021/10/17 05:08:21;;;;;;;;;;;;;;;;;;2123860;28;19948;-57
2021/10/17 05:09:22;;;;;;;;;;;;;;;;;;2123660;28;20409;-57
2021/10/17 05:10:23;;;;;;;;;;;;;;;;;;2123652;28;19973;-57
2021/10/17 05:11:25;;;;;;;;;;;;;;;;;;2123619;28;19923;-57
2021/10/17 05:12:26;;;;;;;;;;;;;;;;;;2123656;28;19963;-57
2021/10/17 05:13:27;;;;;;;;;;;;;;;;;;2123590;28;19923;-57
2021/10/17 05:14:28;;;;;;;;;;;;;;;;;;2123794;28;19934;-57
2021/10/17 05:15:28;;;;;;;;;;;;;;;;;;2123667;28;20297;-57
2021/10/17 05:16:29;;;;;;;;;;;;;;;;;;2123774;28;19935;-57
2021/10/17 05:17:30;;;;;;;;;;;;;;;;;;2123793;28;19923;-57
2021/10/17 05:18:31;;;;;;;;;;;;;;;;;;2123672;28;19927;-57
2021/10/17 05:19:32;;;;;;;;;;;;;;;;;;2123608;28;19934;-57
2021/10/17 05:20:33;;;;;;;;;;;;;;;;;;2123804;28;19923;-57
2021/10/17 05:21:33;;;;;;;;;;;;;;;;;;2123753;28;20246;-57
2021/10/17 05:22:34;;;;;;;;;;;;;;;;;;2123808;28;19923;-57
2021/10/17 05:23:35;;;;;;;;;;;;;;;;;;2123946;28;19927;-57
2021/10/17 05:24:36;;;;;;;;;;;;;;;;;;2123533;28;19923;-57
2021/10/17 05:25:37;;;;;;;;;;;;;;;;;;2123432;28;19924;-57
2021/10/17 05:26:38;;;;;;;;;;;;;;;;;;2123897;28;19931;-57
2021/10/17 05:27:38;;;;;;;;;;;;;;;;;;2123520;28;20292;-57
2021/10/17 05:28:39;;;;;;;;;;;;;;;;;;2123569;28;19924;-57
2021/10/17 05:29:40;;;;;;;;;;;;;;;;;;2123512;28;19923;-57
2021/10/17 05:30:41;;;;;;;;;;;;;;;;;;2123635;28;19927;-57
2021/10/17 05:31:42;;;;;;;;;;;;;;;;;;2123557;28;19927;-57
2021/10/17 05:32:42;;;;;;;;;;;;;;;;;;2123681;28;20340;-57
2021/10/17 05:33:44;;;;;;;;;;;;;;;;;;2123607;28;20423;-57
2021/10/17 05:34:44;;;;;;;;;;;;;;;;;;2123562;28;20343;-57
2021/10/17 05:35:45;;;;;;;;;;;;;;;;;;2123579;28;20027;-57
2021/10/17 05:36:46;;;;;;;;;;;;;;;;;;2123484;28;19927;-57
2021/10/17 05:37:47;;;;;;;;;;;;;;;;;;2123507;28;19930;-57
2021/10/17 05:38:48;;;;;;;;;;;;;;;;;;2123511;27;19972;-57
2021/10/17 05:39:49;;;;;;;;;;;;;;;;;;2123494;28;19927;-57
2021/10/17 05:40:50;;;;;;;;;;;;;;;;;;2123510;28;19927;-57
2021/10/17 05:41:50;;;;;;;;;;;;;;;;;;2123466;28;19924;-57
2021/10/17 05:42:51;;;;;;;;;;;;;;;;;;2123566;28;19927;-57
2021/10/17 05:43:52;;;;;;;;;;;;;;;;;;2123436;28;19927;-58
2021/10/17 05:44:53;;;;;;;;;;;;;;;;;;2123518;28;19923;-57
2021/10/17 05:45:54;;;;;;;;;;;;;;;;;;2123542;28;19949;-57
2021/10/17 05:46:54;;;;;;;;;;;;;;;;;;2123575;27;20327;-58
2021/10/17 05:47:55;;;;;;;;;;;;;;;;;;2123463;28;20379;-57
2021/10/17 05:48:56;;;;;;;;;;;;;;;;;;2123441;28;19923;-57
2021/10/17 05:49:57;;;;;;;;;;;;;;;;;;2123544;28;19930;-57
2021/10/17 05:50:58;;;;;;;;;;;;;;;;;;2123432;28;20322;-57
2021/10/17 05:51:59;;;;;;;;;;;;;;;;;;2123393;28;19951;-57
2021/10/17 05:52:59;;;;;;;;;;;;;;;;;;2123451;28;19923;-58
2021/10/17 05:54:00;;;;;;;;;;;;;;;;;;2123509;28;19924;-57
2021/10/17 05:55:01;;;;;;;;;;;;;;;;;;2123481;28;19923;-57
2021/10/17 05:56:02;;;;;;;;;;;;;;;;;;2123396;28;19927;-58
2021/10/17 05:57:02;;;;;;;;;;;;;;;;;;2123470;28;19923;-57
2021/10/17 05:58:04;;;;;;;;;;;;;;;;;;2123442;28;19985;-58
2021/10/17 05:59:08;;;;;;;;;;;;;;;;;;2123624;27;20010;-58
2021/10/17 06:00:09;;;;;;;;;;;;;;;;;;2123320;27;20463;-58
2021/10/17 06:01:10;;;;;;;;;;;;;;;;;;2123407;28;19931;-57
2021/10/17 06:02:11;;;;;;;;;;;;;;;;;;2123268;28;19946;-58
2021/10/17 06:03:13;;;;;;;;;;;;;;;;;;2123469;28;20395;-58
2021/10/17 06:04:14;;;;;;;;;;;;;;;;;;2123379;27;20387;-57
2021/10/17 06:05:15;;;;;;;;;;;;;;;;;;2123706;27;20002;-58
2021/10/17 06:06:16;;;;;;;;;;;;;;;;;;2123163;28;19924;-57
2021/10/17 06:07:17;;;;;;;;;;;;;;;;;;2123419;28;19924;-58
2021/10/17 06:08:18;;;;;;;;;;;;;;;;;;2123302;28;19927;-57
2021/10/17 06:09:20;;;;;;;;;;;;;;;;;;2123502;28;20547;-58
2021/10/17 06:10:21;;;;;;;;;;;;;;;;;;2123293;28;20014;-58
2021/10/17 06:11:21;;;;;;;;;;;;;;;;;;2123500;28;19934;-57
2021/10/17 06:12:22;;;;;;;;;;;;;;;;;;2123143;28;19939;-58
2021/10/17 06:13:23;;;;;;;;;;;;;;;;;;2123617;28;20329;-57
2021/10/17 06:14:24;;;;;;;;;;;;;;;;;;2123131;28;19924;-58
2021/10/17 06:15:25;;;;;;;;;;;;;;;;;;2123385;28;19923;-58
2021/10/17 06:16:25;;;;;;;;;;;;;;;;;;2123298;28;19930;-57
2021/10/17 06:17:26;;;;;;;;;;;;;;;;;;2123498;28;20255;-57
2021/10/17 06:18:27;;;;;;;;;;;;;;;;;;2123268;27;19928;-58
2021/10/17 06:19:28;;;;;;;;;;;;;;;;;;2123567;28;19927;-58
2021/10/17 06:20:29;;;;;;;;;;;;;;;;;;2123113;28;19927;-57
2021/10/17 06:21:30;;;;;;;;;;;;;;;;;;2123408;28;19924;-58
2021/10/17 06:22:31;;;;;;;;;;;;;;;;;;2123311;28;20436;-58
2021/10/17 06:23:31;;;;;;;;;;;;;;;;;;2123636;28;20339;-57
2021/10/17 06:24:32;;;;;;;;;;;;;;;;;;2123135;28;20296;-58
2021/10/17 06:25:33;;;;;;;;;;;;;;;;;;2123310;28;19927;-59
2021/10/17 06:26:34;;;;;;;;;;;;;;;;;;2123150;28;19955;-58
2021/10/17 06:27:34;;;;;;;;;;;;;;;;;;2123286;28;20387;-58
2021/10/17 06:28:35;;;;;;;;;;;;;;;;;;2123263;28;20422;-58
2021/10/17 06:29:36;;;;;;;;;;;;;;;;;;2123431;28;19923;-57
2021/10/17 06:30:37;;;;;;;;;;;;;;;;;;2123150;28;20284;-57
2021/10/17 06:31:38;;;;;;;;;;;;;;;;;;2123403;27;19924;-57
2021/10/17 06:32:39;;;;;;;;;;;;;;;;;;2123260;28;19927;-57
2021/10/17 06:33:39;;;;;;;;;;;;;;;;;;2123279;28;19924;-57
2021/10/17 06:34:40;;;;;;;;;;;;;;;;;;2123196;28;19923;-59
2021/10/17 06:35:41;;;;;;;;;;;;;;;;;;2123129;28;19991;-57
2021/10/17 06:36:42;;;;;;;;;;;;;;;;;;2123299;28;19976;-57
2021/10/17 06:37:43;;;;;;;;;;;;;;;;;;2123199;28;19923;-57
2021/10/17 06:38:43;;;;;;;;;;;;;;;;;;2123274;28;19923;-57
2021/10/17 06:39:44;;;;;;;;;;;;;;;;;;2123153;27;19963;-58
2021/10/17 06:40:45;;;;;;;;;;;;;;;;;;2123398;28;19923;-57
2021/10/17 06:41:46;;;;;;;;;;;;;;;;;;2123275;28;20003;-57
2021/10/17 06:42:49;;;;;;;;;;;;;;;;;;2123073;28;19923;-57
2021/10/17 06:43:49;;;;;;;;;;;;;;;;;;2123215;28;19923;-57
2021/10/17 06:44:50;;;;;;;;;;;;;;;;;;2123071;28;20320;-57
2021/10/17 06:45:51;;;;;;;;;;;;;;;;;;2123100;27;20376;-57
2021/10/17 06:46:52;;;;;;;;;;;;;;;;;;2123118;28;19934;-57
2021/10/17 06:47:53;;;;;;;;;;;;;;;;;;2123238;28;19924;-57
2021/10/17 06:48:54;;;;;;;;;;;;;;;;;;2123097;28;19972;-57
2021/10/17 06:49:55;;;;;;;;;;;;;;;;;;2123303;28;19930;-57
2021/10/17 06:50:55;;;;;;;;;;;;;;;;;;2123181;28;19982;-58
2021/10/17 06:51:56;;;;;;;;;;;;;;;;;;2123204;28;19959;-57
2021/10/17 06:52:57;;;;;;;;;;;;;;;;;;2123053;28;20310;-57
2021/10/17 06:53:58;;;;;;;;;;;;;;;;;;2123066;28;19930;-58
2021/10/17 06:54:58;;;;;;;;;;;;;;;;;;2123198;28;19923;-57
2021/10/17 06:55:59;;;;;;;;;;;;;;;;;;2123175;28;19923;-57